createdAt,value
2022-10-18T00:01:34.352Z,36.00
2022-10-18T00:04:03.494Z,35.35
2022-10-18T00:06:32.652Z,34.90
2022-10-18T00:09:02.218Z,35.97
2022-10-18T00:11:31.764Z,35.53
2022-10-18T00:14:00.902Z,35.78
2022-10-18T00:16:30.137Z,37.65
2022-10-18T00:18:59.396Z,38.08
2022-10-18T00:21:28.905Z,37.92
2022-10-18T00:23:58.488Z,38.72
2022-10-18T00:26:30.054Z,40.17
2022-10-18T00:29:03.048Z,38.78
2022-10-18T00:34:06.422Z,37.45
2022-10-18T00:36:36.265Z,37.95
2022-10-18T00:39:07.781Z,38.45
2022-10-18T00:41:39.493Z,36.40
2022-10-18T00:44:28.721Z,36.95
2022-10-18T00:47:03.970Z,38.13
2022-10-18T00:49:38.280Z,38.17
2022-10-18T00:52:13.541Z,35.15
2022-10-18T00:54:45.995Z,35.70
2022-10-18T00:57:16.531Z,36.80
2022-10-18T00:59:47.061Z,36.65
2022-10-18T01:02:19.639Z,35.83
2022-10-18T01:04:49.259Z,34.05
2022-10-18T01:07:20.387Z,34.60
2022-10-18T01:10:09.826Z,35.15
2022-10-18T01:13:02.831Z,34.55
2022-10-18T01:15:39.516Z,33.30
2022-10-18T01:18:18.788Z,32.70
2022-10-18T01:20:57.910Z,33.80
2022-10-18T01:23:36.368Z,34.05
2022-10-18T01:26:29.438Z,33.28
2022-10-18T01:29:18.659Z,34.47
2022-10-18T01:31:58.914Z,33.20
2022-10-18T01:34:33.370Z,29.80
2022-10-18T01:37:06.892Z,31.00
2022-10-18T01:39:40.185Z,32.58
2022-10-18T01:42:22.385Z,29.20
2022-10-18T01:44:54.444Z,28.20
2022-10-18T01:47:24.953Z,29.10
2022-10-18T01:50:03.507Z,29.10
2022-10-18T01:52:33.024Z,29.40
2022-10-18T01:55:03.616Z,28.73
2022-10-18T01:57:46.598Z,29.08
2022-10-18T02:00:25.882Z,29.90
2022-10-18T02:03:03.791Z,27.75
2022-10-18T02:05:41.982Z,28.77
2022-10-18T02:08:23.734Z,29.08
2022-10-18T02:11:02.658Z,28.65
2022-10-18T02:13:37.864Z,28.58
2022-10-18T02:16:12.401Z,27.20
2022-10-18T02:18:47.092Z,28.35
2022-10-18T02:21:19.816Z,28.23
2022-10-18T02:23:50.574Z,29.15
2022-10-18T02:26:20.166Z,26.08
2022-10-18T02:28:49.741Z,23.10
2022-10-18T02:31:21.881Z,23.42
2022-10-18T02:34:20.693Z,23.97
2022-10-18T02:36:55.812Z,25.30
2022-10-18T02:39:34.211Z,23.17
2022-10-18T02:42:08.156Z,23.60
2022-10-18T02:44:40.657Z,23.83
2022-10-18T02:47:12.059Z,23.92
2022-10-18T02:49:41.829Z,22.30
2022-10-18T02:52:11.051Z,23.52
2022-10-18T02:54:40.468Z,23.25
2022-10-18T02:57:10.215Z,23.58
2022-10-18T02:59:39.313Z,23.05
2022-10-18T03:02:08.531Z,23.63
2022-10-18T03:04:37.769Z,23.13
2022-10-18T03:07:06.984Z,22.52
2022-10-18T03:09:36.298Z,22.92
2022-10-18T03:12:06.407Z,23.13
2022-10-18T03:14:35.906Z,22.45
2022-10-18T03:17:05.301Z,23.40
2022-10-18T03:19:34.699Z,21.88
2022-10-18T03:22:04.006Z,21.75
2022-10-18T03:24:33.914Z,23.30
2022-10-18T03:27:03.878Z,20.90
2022-10-18T03:29:33.076Z,21.90
2022-10-18T03:32:02.391Z,21.52
2022-10-18T03:34:31.678Z,21.88
2022-10-18T03:37:03.471Z,19.95
2022-10-18T03:39:34.652Z,21.30
2022-10-18T03:42:03.857Z,22.60
2022-10-18T03:44:34.081Z,19.80
2022-10-18T03:47:03.443Z,20.23
2022-10-18T03:52:02.746Z,19.33
2022-10-18T03:54:31.920Z,19.65
2022-10-18T03:57:02.362Z,20.73
2022-10-18T03:59:31.682Z,20.00
2022-10-18T04:02:03.803Z,20.38
2022-10-18T04:04:33.216Z,18.50
2022-10-18T04:07:02.497Z,19.60
2022-10-18T04:09:31.775Z,18.92
2022-10-18T04:12:01.043Z,19.85
2022-10-18T04:14:30.299Z,21.00
2022-10-18T04:16:59.646Z,20.38
2022-10-18T04:19:29.255Z,18.17
2022-10-18T04:21:59.021Z,19.80
2022-10-18T04:24:28.193Z,20.35
2022-10-18T04:26:57.529Z,20.15
2022-10-18T04:29:27.179Z,19.02
2022-10-18T04:31:56.403Z,19.65
2022-10-18T04:34:26.022Z,19.70
2022-10-18T04:36:56.868Z,19.75
2022-10-18T04:39:26.201Z,19.60
2022-10-18T04:41:55.406Z,19.67
2022-10-18T04:44:24.715Z,18.85
2022-10-18T04:46:54.019Z,19.80
2022-10-18T04:49:25.009Z,18.80
2022-10-18T04:51:54.327Z,19.77
2022-10-18T04:54:25.199Z,18.83
2022-10-18T04:56:57.281Z,17.75
2022-10-18T04:59:26.584Z,19.48
2022-10-18T05:01:55.909Z,18.95
2022-10-18T05:04:26.411Z,19.02
2022-10-18T05:06:55.628Z,18.67
2022-10-18T05:09:26.218Z,20.05
2022-10-18T05:11:55.444Z,19.15
2022-10-18T05:14:24.807Z,18.67
2022-10-18T05:16:54.026Z,19.02
2022-10-18T05:19:23.376Z,18.58
2022-10-18T05:21:52.732Z,19.25
2022-10-18T05:24:24.172Z,19.73
2022-10-18T05:26:56.288Z,18.63
2022-10-18T05:31:54.965Z,19.55
2022-10-18T05:34:24.312Z,19.42
2022-10-18T05:36:53.563Z,18.52
2022-10-18T05:39:22.905Z,19.45
2022-10-18T05:41:52.510Z,19.17
2022-10-18T05:44:21.994Z,18.55
2022-10-18T05:46:51.162Z,19.67
2022-10-18T05:49:20.724Z,18.98
2022-10-18T05:51:49.932Z,19.30
2022-10-18T05:54:19.596Z,18.63
2022-10-18T05:56:49.428Z,18.10
2022-10-18T05:59:19.931Z,18.52
2022-10-18T06:01:49.306Z,19.25
2022-10-18T06:04:19.398Z,18.50
2022-10-18T06:06:48.715Z,18.45
2022-10-18T06:09:18.166Z,18.60
2022-10-18T06:11:47.637Z,19.05
2022-10-18T06:14:17.158Z,18.85
2022-10-18T06:16:47.461Z,18.20
2022-10-18T06:19:16.701Z,17.98
2022-10-18T06:21:46.428Z,17.65
2022-10-18T06:24:15.704Z,17.90
2022-10-18T06:26:44.868Z,18.23
2022-10-18T06:29:14.811Z,18.17
2022-10-18T06:31:44.056Z,19.50
2022-10-18T06:34:13.325Z,17.98
2022-10-18T06:36:42.531Z,18.63
2022-10-18T06:39:12.891Z,18.85
2022-10-18T06:41:42.122Z,18.73
2022-10-18T06:44:15.934Z,17.83
2022-10-18T06:46:47.094Z,17.42
2022-10-18T06:49:19.204Z,19.17
2022-10-18T06:51:48.799Z,18.25
2022-10-18T06:54:18.968Z,18.42
2022-10-18T06:56:48.467Z,17.70
2022-10-18T06:59:21.612Z,18.33
2022-10-18T07:01:53.800Z,17.92
2022-10-18T07:04:23.310Z,17.77
2022-10-18T07:06:52.855Z,17.42
2022-10-18T07:09:33.198Z,17.90
2022-10-18T07:12:40.301Z,18.23
2022-10-18T07:14:52.712Z,17.92
2022-10-18T07:17:22.052Z,16.98
2022-10-18T07:19:51.548Z,17.42
2022-10-18T07:22:20.897Z,18.00
2022-10-18T07:24:50.134Z,17.25
2022-10-18T07:27:19.366Z,18.40
2022-10-18T07:29:50.220Z,17.17
2022-10-18T07:32:22.510Z,16.98
2022-10-18T07:34:54.267Z,17.38
2022-10-18T07:37:26.615Z,16.88
2022-10-18T07:39:58.719Z,17.27
2022-10-18T07:42:28.153Z,17.13
2022-10-18T07:45:00.012Z,18.50
2022-10-18T07:47:31.349Z,16.87
2022-10-18T07:50:04.006Z,17.40
2022-10-18T07:52:54.807Z,17.73
2022-10-18T07:55:24.053Z,17.92
2022-10-18T07:57:53.396Z,17.33
2022-10-18T08:00:26.437Z,17.50
2022-10-18T08:03:00.285Z,16.65
2022-10-18T08:08:08.015Z,17.38
2022-10-18T08:10:38.267Z,17.95
2022-10-18T08:13:07.656Z,17.80
2022-10-18T08:15:36.907Z,17.60
2022-10-18T08:18:06.265Z,17.20
2022-10-18T08:20:40.436Z,16.83
2022-10-18T08:23:10.411Z,16.50
2022-10-18T08:25:40.908Z,16.75
2022-10-18T08:28:10.243Z,18.45
2022-10-18T08:30:39.691Z,18.15
2022-10-18T08:33:09.395Z,17.55
2022-10-18T08:35:38.926Z,17.05
2022-10-18T08:38:17.979Z,17.23
2022-10-18T08:40:49.672Z,17.38
2022-10-18T08:43:30.082Z,18.00
2022-10-18T08:46:00.238Z,19.08
2022-10-18T08:48:47.428Z,17.45
2022-10-18T08:51:43.993Z,17.45
2022-10-18T08:54:24.154Z,16.50
2022-10-18T08:57:02.371Z,18.08
2022-10-18T08:59:39.866Z,17.55
2022-10-18T09:02:22.380Z,22.98
2022-10-18T09:04:52.518Z,19.83
2022-10-18T09:07:54.025Z,20.27
2022-10-18T09:10:35.381Z,19.15
2022-10-18T09:13:17.020Z,17.85
2022-10-18T09:15:53.317Z,18.00
2022-10-18T09:18:28.716Z,17.55
2022-10-18T09:21:01.135Z,18.88
2022-10-18T09:23:50.838Z,19.17
2022-10-18T09:26:23.438Z,18.67
2022-10-18T09:29:00.161Z,19.30
2022-10-18T09:31:51.643Z,20.38
2022-10-18T09:34:30.157Z,20.05
2022-10-18T09:37:00.632Z,18.75
2022-10-18T09:39:37.062Z,18.60
2022-10-18T09:42:15.028Z,23.20
2022-10-18T09:44:50.732Z,19.75
2022-10-18T09:47:22.824Z,24.20
2022-10-18T09:49:59.849Z,36.70
2022-10-18T09:52:43.003Z,28.98
2022-10-18T09:55:21.931Z,20.92
2022-10-18T09:57:58.046Z,21.85
2022-10-18T10:00:40.811Z,19.85
2022-10-18T10:03:16.560Z,22.23
2022-10-18T10:05:46.541Z,21.65
2022-10-18T10:08:15.838Z,21.65
2022-10-18T10:10:49.542Z,20.80
2022-10-18T10:13:26.191Z,21.33
2022-10-18T10:16:10.746Z,23.35
2022-10-18T10:18:41.828Z,20.65
2022-10-18T10:21:17.447Z,21.58
2022-10-18T10:23:57.417Z,22.58
2022-10-18T10:26:40.133Z,25.13
2022-10-18T10:29:48.634Z,24.00
2022-10-18T10:32:20.549Z,24.92
2022-10-18T10:34:49.928Z,25.10
2022-10-18T10:37:27.615Z,25.08
2022-10-18T10:40:21.957Z,22.88
2022-10-18T10:43:19.600Z,24.23
2022-10-18T10:46:03.030Z,23.45
2022-10-18T10:48:36.383Z,24.52
2022-10-18T10:51:09.569Z,24.13
2022-10-18T10:53:43.164Z,23.60
2022-10-18T10:56:22.974Z,25.52
2022-10-18T10:58:53.660Z,24.48
2022-10-18T11:01:29.845Z,24.05
2022-10-18T11:04:03.216Z,24.52
2022-10-18T11:06:38.559Z,24.15
2022-10-18T11:09:29.326Z,26.08
2022-10-18T11:12:06.891Z,25.55
2022-10-18T11:14:46.344Z,24.60
2022-10-18T11:17:23.663Z,26.58
2022-10-18T11:20:15.200Z,26.85
2022-10-18T11:22:58.408Z,27.35
2022-10-18T11:25:40.922Z,28.42
2022-10-18T11:28:23.435Z,28.90
2022-10-18T11:31:09.633Z,31.65
2022-10-18T11:34:17.687Z,29.50
2022-10-18T11:37:23.044Z,30.60
2022-10-18T11:39:58.516Z,29.15
2022-10-18T11:42:40.207Z,30.08
2022-10-18T11:45:48.914Z,29.95
2022-10-18T11:48:20.147Z,29.50
2022-10-18T11:51:12.924Z,30.90
2022-10-18T11:53:52.536Z,27.88
2022-10-18T11:56:36.087Z,29.60
2022-10-18T11:59:16.165Z,29.77
2022-10-18T12:01:59.113Z,29.77
2022-10-18T12:04:40.957Z,29.45
2022-10-18T12:07:26.798Z,30.45
2022-10-18T12:09:59.358Z,29.98
2022-10-18T12:12:35.191Z,29.80
2022-10-18T12:15:15.269Z,29.83
2022-10-18T12:17:50.316Z,29.35
2022-10-18T12:20:41.882Z,30.73
2022-10-18T12:23:16.677Z,29.15
2022-10-18T12:25:51.161Z,30.38
2022-10-18T12:28:45.896Z,29.95
2022-10-18T12:31:28.319Z,31.10
2022-10-18T12:34:00.924Z,30.52
2022-10-18T12:36:50.276Z,30.42
2022-10-18T12:39:43.501Z,29.90
2022-10-18T12:42:27.969Z,29.40
2022-10-18T12:45:26.264Z,30.70
2022-10-18T12:47:57.398Z,29.77
2022-10-18T12:50:27.689Z,30.65
2022-10-18T12:53:09.040Z,31.60
2022-10-18T12:58:17.618Z,30.63
2022-10-18T13:00:48.922Z,29.27
2022-10-18T13:03:20.179Z,29.67
2022-10-18T13:05:54.993Z,30.10
2022-10-18T13:08:30.683Z,31.70
2022-10-18T13:11:29.270Z,31.02
2022-10-18T13:14:19.675Z,32.78
2022-10-18T13:17:16.660Z,31.38
2022-10-18T13:20:24.553Z,31.48
2022-10-18T13:23:02.832Z,29.60
2022-10-18T13:26:11.404Z,30.83
2022-10-18T13:28:45.424Z,30.73
2022-10-18T13:31:46.300Z,29.95
2022-10-18T13:34:36.558Z,31.33
2022-10-18T13:37:06.887Z,31.02
2022-10-18T13:39:36.371Z,31.38
2022-10-18T13:42:06.500Z,30.67
2022-10-18T13:44:39.376Z,31.55
2022-10-18T13:49:42.564Z,32.03
2022-10-18T13:52:48.308Z,32.33
2022-10-18T13:55:37.848Z,32.35
2022-10-18T13:58:26.360Z,32.67
2022-10-18T14:01:03.626Z,33.67
2022-10-18T14:03:58.545Z,32.88
2022-10-18T14:06:34.429Z,33.85
2022-10-18T14:09:40.257Z,33.92
2022-10-18T14:12:24.826Z,34.45
2022-10-18T14:15:33.549Z,33.95
2022-10-18T14:18:27.074Z,34.05
2022-10-18T14:21:18.811Z,36.75
2022-10-18T14:23:52.346Z,35.70
2022-10-18T14:26:24.236Z,36.63
2022-10-18T14:29:17.797Z,36.42
2022-10-18T14:31:55.828Z,35.72
2022-10-18T14:34:25.122Z,35.83
2022-10-18T14:36:54.500Z,35.42
2022-10-18T14:39:29.597Z,34.42
2022-10-18T14:41:59.983Z,35.47
2022-10-18T14:44:31.426Z,35.92
2022-10-18T14:47:05.110Z,34.83
2022-10-18T14:49:34.383Z,34.88
2022-10-18T14:52:03.802Z,37.25
2022-10-18T14:54:39.509Z,34.70
2022-10-18T14:57:09.578Z,35.88
2022-10-18T14:59:53.872Z,35.55
2022-10-18T15:02:26.498Z,36.25
2022-10-18T15:04:59.676Z,39.42
2022-10-18T15:07:31.085Z,37.40
2022-10-18T15:10:02.971Z,38.20
2022-10-18T15:12:37.040Z,46.35
2022-10-18T15:15:23.643Z,44.47
2022-10-18T15:17:54.004Z,39.75
2022-10-18T15:20:32.829Z,37.15
2022-10-18T15:23:30.982Z,36.53
2022-10-18T15:26:07.191Z,38.83
2022-10-18T15:28:42.379Z,37.47
2022-10-18T15:31:25.481Z,36.38
2022-10-18T15:36:30.985Z,36.70
2022-10-18T15:39:21.536Z,35.72
2022-10-18T15:41:54.578Z,33.40
2022-10-18T15:44:31.178Z,33.08
2022-10-18T15:47:22.322Z,34.03
2022-10-18T15:49:56.797Z,33.05
2022-10-18T15:52:36.648Z,33.55
2022-10-18T15:55:35.568Z,32.08
2022-10-18T15:58:06.883Z,32.38
2022-10-18T16:00:37.066Z,32.20
2022-10-18T16:03:08.854Z,31.95
2022-10-18T16:05:39.484Z,31.40
2022-10-18T16:08:08.793Z,31.42
2022-10-18T16:10:39.438Z,31.75
2022-10-18T16:13:08.612Z,31.90
2022-10-18T16:15:37.831Z,32.00
2022-10-18T16:18:07.087Z,31.15
2022-10-18T16:20:36.386Z,32.95
2022-10-18T16:23:10.570Z,31.25
2022-10-18T16:25:39.787Z,29.98
2022-10-18T16:28:18.300Z,30.73
2022-10-18T16:30:55.238Z,30.75
2022-10-18T16:33:24.624Z,31.60
2022-10-18T16:35:54.342Z,31.13
2022-10-18T16:38:42.383Z,31.67
2022-10-18T16:41:12.614Z,29.85
2022-10-18T16:43:42.003Z,30.83
2022-10-18T16:46:17.040Z,29.55
2022-10-18T16:48:47.322Z,29.98
2022-10-18T16:51:16.867Z,29.33
2022-10-18T16:53:46.192Z,29.60
2022-10-18T16:56:18.461Z,29.15
2022-10-18T16:58:48.395Z,28.55
2022-10-18T17:01:20.283Z,28.63
2022-10-18T17:03:50.224Z,29.43
2022-10-18T17:06:21.311Z,28.13
2022-10-18T17:08:51.383Z,29.45
2022-10-18T17:11:21.781Z,28.02
2022-10-18T17:13:51.023Z,29.83
2022-10-18T17:16:38.318Z,29.63
2022-10-18T17:19:09.672Z,29.20
2022-10-18T17:21:39.246Z,29.58
2022-10-18T17:24:08.481Z,29.75
2022-10-18T17:26:37.644Z,28.48
2022-10-18T17:29:09.727Z,28.50
2022-10-18T17:31:38.961Z,29.17
2022-10-18T17:34:08.184Z,29.08
2022-10-18T17:36:37.418Z,29.40
2022-10-18T17:39:07.042Z,29.25
2022-10-18T17:41:36.220Z,29.70
2022-10-18T17:44:06.864Z,29.60
2022-10-18T17:46:36.150Z,29.95
2022-10-18T17:49:05.365Z,29.20
2022-10-18T17:51:34.605Z,30.67
2022-10-18T17:54:04.976Z,29.08
2022-10-18T17:56:36.262Z,29.90
2022-10-18T17:59:05.441Z,30.52
2022-10-18T18:01:34.678Z,28.73
2022-10-18T18:04:05.139Z,29.83
2022-10-18T18:06:37.369Z,30.08
2022-10-18T18:09:11.141Z,31.33
2022-10-18T18:11:43.415Z,29.48
2022-10-18T18:14:13.646Z,30.65
2022-10-18T18:16:45.017Z,30.83
2022-10-18T18:19:15.523Z,31.08
2022-10-18T18:21:45.043Z,29.63
2022-10-18T18:24:15.466Z,28.60
2022-10-18T18:26:45.131Z,29.70
2022-10-18T18:29:14.878Z,31.05
2022-10-18T18:31:45.333Z,30.92
2022-10-18T18:34:14.930Z,31.05
2022-10-18T18:36:44.590Z,29.83
2022-10-18T18:39:22.112Z,30.00
2022-10-18T18:41:53.027Z,31.05
2022-10-18T18:44:23.057Z,30.02
2022-10-18T18:46:52.178Z,31.23
2022-10-18T18:49:21.544Z,32.22
2022-10-18T18:51:51.117Z,32.00
2022-10-18T18:54:20.447Z,31.95
2022-10-18T18:56:49.766Z,32.03
2022-10-18T18:59:21.489Z,32.28
2022-10-18T19:01:50.803Z,31.85
2022-10-18T19:04:20.025Z,32.13
2022-10-18T19:06:49.408Z,31.50
2022-10-18T19:09:23.217Z,31.83
2022-10-18T19:11:55.126Z,31.52
2022-10-18T19:14:26.047Z,32.45
2022-10-18T19:16:58.950Z,31.17
2022-10-18T19:19:30.688Z,32.00
2022-10-18T19:22:02.333Z,31.90
2022-10-18T19:24:33.442Z,32.22
2022-10-18T19:27:06.937Z,33.60
2022-10-18T19:29:38.772Z,33.72
2022-10-18T19:32:13.246Z,33.45
2022-10-18T19:34:42.911Z,32.65
2022-10-18T19:37:15.474Z,33.10
2022-10-18T19:39:45.075Z,33.70
2022-10-18T19:42:19.179Z,33.47
2022-10-18T19:44:51.978Z,34.78
2022-10-18T19:47:21.874Z,33.40
2022-10-18T19:49:51.178Z,33.45
2022-10-18T19:52:20.329Z,34.75
2022-10-18T19:54:51.831Z,33.88
2022-10-18T19:57:20.987Z,33.88
2022-10-18T19:59:50.231Z,34.67
2022-10-18T20:02:20.404Z,35.33
2022-10-18T20:04:49.639Z,33.80
2022-10-18T20:07:18.820Z,34.70
2022-10-18T20:09:49.805Z,34.95
2022-10-18T20:12:18.946Z,33.40
2022-10-18T20:14:48.214Z,33.40
2022-10-18T20:17:17.485Z,34.10
2022-10-18T20:19:46.665Z,36.00
2022-10-18T20:22:15.925Z,35.20
2022-10-18T20:24:45.487Z,34.00
2022-10-18T20:27:14.592Z,33.58
2022-10-18T20:29:43.759Z,35.67
2022-10-18T20:32:13.059Z,34.65
2022-10-18T20:34:42.355Z,35.15
2022-10-18T20:37:11.513Z,34.10
2022-10-18T20:39:41.888Z,34.70
2022-10-18T20:42:11.025Z,32.97
2022-10-18T20:44:44.565Z,32.80
2022-10-18T20:47:13.759Z,32.80
2022-10-18T20:49:42.954Z,33.90
2022-10-18T20:52:12.217Z,35.00
2022-10-18T20:54:41.438Z,34.47
2022-10-18T20:57:10.640Z,35.55
2022-10-18T20:59:39.759Z,36.13
2022-10-18T21:02:09.273Z,35.67
2022-10-18T21:04:41.405Z,34.70
2022-10-18T21:07:11.589Z,34.88
2022-10-18T21:09:40.746Z,34.10
2022-10-18T21:14:43.829Z,34.33
2022-10-18T21:17:13.041Z,35.58
2022-10-18T21:19:42.256Z,36.00
2022-10-18T21:22:11.502Z,34.83
2022-10-18T21:24:40.672Z,34.80
2022-10-18T21:27:09.841Z,34.88
2022-10-18T21:29:39.105Z,36.42
2022-10-18T21:32:08.278Z,36.25
2022-10-18T21:34:37.473Z,37.80
2022-10-18T21:37:06.746Z,36.17
2022-10-18T21:39:36.744Z,34.90
2022-10-18T21:42:06.130Z,35.63
2022-10-18T21:44:35.412Z,35.38
2022-10-18T21:47:04.594Z,35.75
2022-10-18T21:49:36.545Z,36.25
2022-10-18T21:52:06.744Z,38.03
2022-10-18T21:54:36.011Z,36.33
2022-10-18T21:57:05.185Z,39.20
2022-10-18T21:59:37.201Z,37.05
2022-10-18T22:02:06.706Z,37.78
2022-10-18T22:04:37.187Z,38.10
2022-10-18T22:07:06.654Z,38.05
2022-10-18T22:09:35.927Z,39.30
2022-10-18T22:12:08.298Z,38.00
2022-10-18T22:14:39.599Z,38.38
2022-10-18T22:17:08.828Z,39.15
2022-10-18T22:19:38.117Z,37.22
2022-10-18T22:22:07.265Z,39.50
2022-10-18T22:27:05.376Z,39.17
2022-10-18T22:29:34.952Z,37.15
2022-10-18T22:32:04.121Z,39.67
2022-10-18T22:34:33.289Z,41.08
2022-10-18T22:37:02.478Z,40.15
2022-10-18T22:39:31.661Z,42.47
2022-10-18T22:42:00.826Z,41.85
2022-10-18T22:44:31.011Z,41.55
2022-10-18T22:47:00.162Z,40.13
2022-10-18T22:49:29.537Z,42.25
2022-10-18T22:51:58.692Z,39.63
2022-10-18T22:54:28.813Z,39.22
2022-10-18T22:56:58.022Z,42.80
2022-10-18T22:59:27.278Z,43.15
2022-10-18T23:01:57.538Z,42.22
2022-10-18T23:04:26.736Z,40.30
2022-10-18T23:06:55.949Z,42.88
2022-10-18T23:09:25.149Z,44.28
2022-10-18T23:11:54.808Z,43.30
2022-10-18T23:14:23.946Z,42.97
2022-10-18T23:16:53.204Z,41.45
2022-10-18T23:19:22.387Z,42.33
2022-10-18T23:21:51.550Z,42.60
2022-10-18T23:24:20.749Z,43.45
2022-10-18T23:26:49.984Z,44.15
2022-10-18T23:29:19.298Z,42.55
2022-10-18T23:31:48.531Z,43.60
2022-10-18T23:34:17.763Z,44.58
2022-10-18T23:36:47.300Z,46.38
2022-10-18T23:39:16.503Z,45.25
2022-10-18T23:41:45.657Z,45.30
2022-10-18T23:44:15.016Z,45.35
2022-10-18T23:46:44.203Z,45.50
2022-10-18T23:49:13.377Z,48.17
2022-10-18T23:51:42.566Z,45.80
2022-10-18T23:54:11.788Z,47.80
2022-10-18T23:56:40.955Z,46.75
2022-10-18T23:59:10.171Z,48.50
